Puerto Cabezas Airport
MNPC : now visible

Airfield :











YOU CAN JOIN US ON...

 
LOGIN :

Register | Disclaimer

   EN    FR    IT 

 









Legend :    VFR   Marginal VFR   IFR   Intensive IFR   Very Intensive IFR
Visi :
Ceiling :
>= 8 km
>= 3000ft
5 to 8 km
1000 to 3000 ft
1500m to 5 km
500 to 1000 ft
800 to 1500m
200 to 500 ft
< 800m
< 200 ft
Symbols :   Thunderstorms  Fog  Heavy snow  Heavy precipitations  Wind > 20 kt






- Airport Elevation : 52 ft
- IATA code : PUZ


MNPC - Puerto Cabezas

CURRENT METAR :
  • 031800Z 08006KT 7000 BKN016 30/26 Q1011 HZ

EXPIRED METARs :
  • 031700Z 08004KT 7000 BKN016 29/26 Q1012 HZ
  • 031600Z 09004KT 7000 BKN016 30/25 Q1012 HZ

TAF MNPC
Valid from the 03 at 18:00 until the 04 at 18:00 UTC


031443Z 0318/0418 09008KT 7000 HZ FEW017
TEMPO 0402/0408 05006KT
BECMG 0412/0415 07008KT 8000 HZ SCT016



MET'MAP, your aeronautical weather chart ! - Copyright ORBIFLY December 2007 - Disclaimer

ORBIFLY MET'MAP TEAM :

Programming & Development : Alexandra Zaïnal
Concept & original design : Baudouin d'Aumeries
Assistance for programming : Marc-Olivier Méhu
Technical & hardware support : Manuel Goepfert

Contact : metmap@orbifly.com




SOURCES & CREDITS :

   NOAA       Earth
Advisory